createdAt,value
2023-01-11T00:02:01.872Z,7.46
2023-01-11T00:04:30.817Z,7.47
2023-01-11T00:06:58.175Z,7.48
2023-01-11T00:09:25.032Z,7.50
2023-01-11T00:11:51.783Z,7.50
2023-01-11T00:14:18.473Z,7.51
2023-01-11T00:16:45.007Z,7.51
2023-01-11T00:19:11.562Z,7.52
2023-01-11T00:21:38.259Z,7.51
2023-01-11T00:24:05.638Z,7.51
2023-01-11T00:26:32.246Z,7.51
2023-01-11T00:28:59.095Z,7.52
2023-01-11T00:31:25.728Z,7.53
2023-01-11T00:33:52.404Z,7.54
2023-01-11T00:39:07.336Z,7.55
2023-01-11T00:41:52.402Z,7.55
2023-01-11T00:44:37.341Z,7.56
2023-01-11T00:47:22.520Z,7.55
2023-01-11T00:49:49.211Z,7.58
2023-01-11T00:52:15.675Z,7.62
2023-01-11T00:54:42.433Z,7.63
2023-01-11T00:57:09.500Z,7.66
2023-01-11T00:59:39.503Z,7.68
2023-01-11T01:02:06.968Z,7.70
2023-01-11T01:04:33.821Z,7.70
2023-01-11T01:07:00.511Z,7.71
2023-01-11T01:09:27.964Z,7.72
2023-01-11T01:11:54.469Z,7.72
2023-01-11T01:14:28.431Z,7.74
2023-01-11T01:17:12.882Z,7.76
2023-01-11T01:19:39.832Z,7.77
2023-01-11T01:22:07.319Z,7.77
2023-01-11T01:24:34.265Z,7.79
2023-01-11T01:27:00.833Z,7.79
2023-01-11T01:29:27.803Z,7.81
2023-01-11T01:31:54.519Z,7.82
2023-01-11T01:34:21.152Z,7.83
2023-01-11T01:36:47.690Z,7.84
2023-01-11T01:39:14.500Z,7.86
2023-01-11T01:41:41.250Z,7.86
2023-01-11T01:44:45.381Z,7.89
2023-01-11T01:47:12.747Z,7.89
2023-01-11T01:49:41.021Z,7.89
2023-01-11T01:52:08.947Z,7.89
2023-01-11T01:54:39.597Z,7.91
2023-01-11T01:57:13.957Z,7.91
2023-01-11T01:59:41.654Z,7.92
2023-01-11T02:02:08.702Z,7.93
2023-01-11T02:04:42.542Z,7.93
2023-01-11T02:07:10.501Z,7.95
2023-01-11T02:09:55.874Z,7.95
2023-01-11T02:12:24.921Z,7.96
2023-01-11T02:14:54.526Z,7.97
2023-01-11T02:17:21.762Z,7.98
2023-01-11T02:20:33.343Z,7.96
2023-01-11T02:23:27.757Z,7.97
2023-01-11T02:26:12.587Z,7.96
2023-01-11T02:29:25.409Z,7.95
2023-01-11T02:32:00.508Z,7.96
2023-01-11T02:34:41.910Z,7.95
2023-01-11T02:37:13.222Z,7.95
2023-01-11T02:39:45.101Z,7.96
2023-01-11T02:42:43.950Z,7.95
2023-01-11T02:45:41.378Z,7.97
2023-01-11T02:48:22.891Z,8.01
2023-01-11T02:50:58.914Z,8.02
2023-01-11T02:53:48.298Z,8.04
2023-01-11T02:56:21.944Z,8.05
2023-01-11T02:58:51.816Z,8.06
2023-01-11T03:01:22.511Z,8.07
2023-01-11T03:03:50.603Z,8.07
2023-01-11T03:06:21.287Z,8.05
2023-01-11T03:09:03.149Z,8.01
2023-01-11T03:11:48.213Z,7.97
2023-01-11T03:14:36.654Z,7.96
2023-01-11T03:17:30.975Z,7.92
2023-01-11T03:20:20.634Z,7.86
2023-01-11T03:23:21.886Z,7.86
2023-01-11T03:26:12.739Z,7.88
2023-01-11T03:28:54.371Z,7.89
2023-01-11T03:31:30.369Z,7.92
2023-01-11T03:34:05.478Z,7.96
2023-01-11T03:36:37.225Z,8.00
2023-01-11T03:39:19.329Z,8.03
2023-01-11T03:41:49.023Z,8.07
2023-01-11T03:44:18.591Z,8.09
2023-01-11T03:46:49.011Z,8.12
2023-01-11T03:49:33.519Z,8.14
2023-01-11T03:52:04.663Z,8.17
2023-01-11T03:54:33.266Z,8.18
2023-01-11T03:57:13.054Z,8.18
2023-01-11T03:59:40.473Z,8.19
2023-01-11T04:02:19.957Z,8.20
2023-01-11T04:04:46.746Z,8.22
2023-01-11T04:07:14.121Z,8.24
2023-01-11T04:09:40.666Z,8.28
2023-01-11T04:12:07.785Z,8.29
2023-01-11T04:14:34.394Z,8.33
2023-01-11T04:17:01.019Z,8.34
2023-01-11T04:19:27.883Z,8.35
2023-01-11T04:21:54.393Z,8.36
2023-01-11T04:24:21.596Z,8.39
2023-01-11T04:26:48.465Z,8.41
2023-01-11T04:29:14.943Z,8.44
2023-01-11T04:31:41.663Z,8.45
2023-01-11T04:34:08.554Z,8.49
2023-01-11T04:36:35.536Z,8.51
2023-01-11T04:39:02.166Z,8.53
2023-01-11T04:41:47.601Z,8.54
2023-01-11T04:44:14.346Z,8.57
2023-01-11T04:46:41.029Z,8.58
2023-01-11T04:49:07.506Z,8.61
2023-01-11T04:51:34.029Z,8.63
2023-01-11T04:54:00.802Z,8.66
2023-01-11T04:56:27.356Z,8.69
2023-01-11T04:58:54.797Z,8.70
2023-01-11T05:01:21.369Z,8.73
2023-01-11T05:03:48.100Z,8.74
2023-01-11T05:06:15.739Z,8.77
2023-01-11T05:08:48.594Z,8.80
2023-01-11T05:11:17.234Z,8.82
2023-01-11T05:13:44.342Z,8.85
2023-01-11T05:16:14.999Z,8.88
2023-01-11T05:18:43.367Z,8.90
2023-01-11T05:21:12.125Z,8.88
2023-01-11T05:23:39.655Z,8.90
2023-01-11T05:26:15.283Z,8.90
2023-01-11T05:28:41.754Z,8.92
2023-01-11T05:31:08.221Z,8.95
2023-01-11T05:33:35.205Z,8.96
2023-01-11T05:36:04.692Z,8.98
2023-01-11T05:38:31.834Z,8.98
2023-01-11T05:41:03.917Z,9.01
2023-01-11T05:43:31.290Z,9.01
2023-01-11T05:45:59.395Z,9.03
2023-01-11T05:48:26.049Z,9.05
2023-01-11T05:50:56.047Z,9.06
2023-01-11T05:53:24.233Z,9.09
2023-01-11T05:55:55.205Z,9.11
2023-01-11T05:58:23.310Z,9.12
2023-01-11T06:00:55.161Z,9.13
2023-01-11T06:03:23.603Z,9.16
2023-01-11T06:05:50.647Z,9.18
2023-01-11T06:08:17.284Z,9.19
2023-01-11T06:10:50.213Z,9.21
2023-01-11T06:13:28.819Z,9.22
2023-01-11T06:16:00.343Z,9.24
2023-01-11T06:18:31.668Z,9.25
2023-01-11T06:20:58.844Z,9.25
2023-01-11T06:23:27.147Z,9.26
2023-01-11T06:25:54.598Z,9.27
2023-01-11T06:28:21.791Z,9.28
2023-01-11T06:30:53.306Z,9.29
2023-01-11T06:33:20.477Z,9.29
2023-01-11T06:35:47.199Z,9.29
2023-01-11T06:38:15.583Z,9.29
2023-01-11T06:40:42.672Z,9.31
2023-01-11T06:43:10.427Z,9.33
2023-01-11T06:45:40.144Z,9.34
2023-01-11T06:48:06.767Z,9.34
2023-01-11T06:50:33.256Z,9.35
2023-01-11T06:53:03.977Z,9.37
2023-01-11T06:55:31.119Z,9.38
2023-01-11T06:57:57.832Z,9.37
2023-01-11T07:00:24.864Z,9.37
2023-01-11T07:02:51.611Z,9.37
2023-01-11T07:05:19.466Z,9.37
2023-01-11T07:07:46.519Z,9.36
2023-01-11T07:10:16.225Z,9.35
2023-01-11T07:12:43.309Z,9.37
2023-01-11T07:15:11.050Z,9.50
2023-01-11T07:17:40.357Z,9.67
2023-01-11T07:20:07.719Z,9.82
2023-01-11T07:22:35.617Z,10.00
2023-01-11T07:25:04.159Z,10.09
2023-01-11T07:27:30.903Z,10.19
2023-01-11T07:29:59.871Z,10.22
2023-01-11T07:32:29.158Z,10.19
2023-01-11T07:34:56.144Z,10.14
2023-01-11T07:37:28.935Z,10.14
2023-01-11T07:39:56.384Z,10.15
2023-01-11T07:42:41.999Z,10.11
2023-01-11T07:45:09.125Z,10.13
2023-01-11T07:47:35.597Z,10.08
2023-01-11T07:50:02.120Z,10.01
2023-01-11T07:52:28.875Z,9.94
2023-01-11T07:54:55.361Z,9.88
2023-01-11T07:57:21.829Z,9.85
2023-01-11T07:59:48.479Z,9.81
2023-01-11T08:02:15.256Z,9.79
2023-01-11T08:04:41.736Z,9.78
2023-01-11T08:07:08.233Z,9.77
2023-01-11T08:09:34.772Z,9.77
2023-01-11T08:12:20.002Z,9.78
2023-01-11T08:14:46.605Z,9.75
2023-01-11T08:17:15.723Z,9.75
2023-01-11T08:19:43.205Z,9.76
2023-01-11T08:22:10.306Z,9.74
2023-01-11T08:24:37.048Z,9.77
2023-01-11T08:27:04.346Z,9.81
2023-01-11T08:29:31.281Z,9.82
2023-01-11T08:31:59.315Z,9.84
2023-01-11T08:34:27.590Z,9.83
2023-01-11T08:36:54.114Z,9.86
2023-01-11T08:39:20.785Z,9.86
2023-01-11T08:41:47.232Z,9.88
2023-01-11T08:44:14.994Z,9.90
2023-01-11T08:46:41.649Z,9.93
2023-01-11T08:49:12.118Z,9.97
2023-01-11T08:51:40.174Z,10.00
2023-01-11T08:54:10.795Z,10.02
2023-01-11T08:56:37.793Z,10.06
2023-01-11T08:59:05.581Z,10.10
2023-01-11T09:01:33.539Z,10.12
2023-01-11T09:04:00.256Z,10.13
2023-01-11T09:06:26.772Z,10.16
2023-01-11T09:08:53.358Z,10.17
2023-01-11T09:11:38.671Z,10.18
2023-01-11T09:14:05.837Z,10.21
2023-01-11T09:16:32.588Z,10.21
2023-01-11T09:18:59.077Z,10.22
2023-01-11T09:21:25.558Z,10.24
2023-01-11T09:23:52.227Z,10.29
2023-01-11T09:26:18.808Z,10.33
2023-01-11T09:28:45.311Z,10.33
2023-01-11T09:31:12.089Z,10.35
2023-01-11T09:33:39.277Z,10.34
2023-01-11T09:36:06.302Z,10.34
2023-01-11T09:38:34.009Z,10.30
2023-01-11T09:41:17.450Z,10.27
2023-01-11T09:43:54.263Z,10.25
2023-01-11T09:46:21.540Z,10.25
2023-01-11T09:48:56.267Z,10.28
2023-01-11T09:51:29.391Z,10.28
2023-01-11T09:53:58.180Z,10.29
2023-01-11T09:56:37.937Z,10.30
2023-01-11T09:59:19.302Z,10.30
2023-01-11T10:02:05.632Z,10.31
2023-01-11T10:04:51.497Z,10.35
2023-01-11T10:07:53.644Z,10.38
2023-01-11T10:18:21.152Z,10.44
2023-01-11T10:18:40.004Z,10.49
2023-01-11T10:19:48.360Z,10.51
2023-01-11T10:22:22.587Z,10.54
2023-01-11T10:24:56.334Z,10.56
2023-01-11T10:28:06.763Z,10.63
2023-01-11T10:30:55.673Z,10.68
2023-01-11T10:34:06.175Z,10.76
2023-01-11T10:37:06.187Z,10.78
2023-01-11T10:40:04.033Z,10.90
2023-01-11T10:42:47.304Z,11.00
2023-01-11T10:45:23.796Z,11.05
2023-01-11T10:48:15.693Z,11.06
2023-01-11T10:50:55.359Z,11.06
2023-01-11T10:53:32.450Z,11.04
2023-01-11T10:56:25.492Z,10.96
2023-01-11T10:59:06.903Z,10.92
2023-01-11T11:01:50.321Z,10.89
2023-01-11T11:04:45.192Z,10.80
2023-01-11T11:07:36.325Z,10.77
2023-01-11T11:10:28.849Z,10.75
2023-01-11T11:13:10.855Z,10.73
2023-01-11T11:15:55.836Z,10.70
2023-01-11T11:18:22.685Z,10.68
2023-01-11T11:20:49.352Z,10.65
2023-01-11T11:23:21.577Z,10.67
2023-01-11T11:25:55.069Z,10.68
2023-01-11T11:28:30.896Z,10.68
2023-01-11T11:31:00.437Z,10.69
2023-01-11T11:33:38.777Z,10.70
2023-01-11T11:36:13.261Z,10.71
2023-01-11T11:38:42.651Z,10.73
2023-01-11T11:41:17.382Z,10.71
2023-01-11T11:43:46.620Z,10.71
2023-01-11T11:46:24.944Z,10.71
2023-01-11T11:49:17.332Z,10.73
2023-01-11T11:51:47.196Z,10.73
2023-01-11T11:54:22.191Z,10.74
2023-01-11T11:56:49.291Z,10.76
2023-01-11T11:59:19.301Z,10.74
2023-01-11T12:01:49.075Z,10.75
2023-01-11T12:04:31.949Z,10.74
2023-01-11T12:07:23.745Z,10.74
2023-01-11T12:10:02.916Z,10.76
2023-01-11T12:12:32.275Z,10.75
2023-01-11T12:15:20.064Z,10.74
2023-01-11T12:17:47.675Z,10.73
2023-01-11T12:20:26.570Z,10.72
2023-01-11T12:23:17.375Z,10.69
2023-01-11T12:26:05.547Z,10.64
2023-01-11T12:28:50.493Z,10.63
2023-01-11T12:31:47.652Z,10.59
2023-01-11T12:34:45.244Z,10.58
2023-01-11T12:37:51.474Z,10.50
2023-01-11T12:40:48.138Z,10.46
2023-01-11T12:43:39.724Z,10.39
2023-01-11T12:46:25.567Z,10.34
2023-01-11T12:49:16.203Z,10.27
2023-01-11T12:51:45.661Z,10.26
2023-01-11T12:54:19.951Z,10.22
2023-01-11T12:57:05.878Z,10.17
2023-01-11T12:59:43.941Z,10.15
2023-01-11T13:03:03.475Z,10.15
2023-01-11T13:05:47.503Z,10.15
2023-01-11T13:08:38.054Z,10.14
2023-01-11T13:11:35.515Z,10.14
2023-01-11T13:14:33.834Z,10.17
2023-01-11T13:17:17.963Z,10.19
2023-01-11T13:20:03.307Z,10.21
2023-01-11T13:22:35.139Z,10.23
2023-01-11T13:25:11.461Z,10.22
2023-01-11T13:27:40.126Z,10.23
2023-01-11T13:30:12.419Z,10.25
2023-01-11T13:32:41.366Z,10.28
2023-01-11T13:35:18.371Z,10.29
2023-01-11T13:37:52.166Z,10.30
2023-01-11T13:40:35.580Z,10.28
2023-01-11T13:43:13.589Z,10.26
2023-01-11T13:46:03.709Z,10.24
2023-01-11T13:48:55.502Z,10.26
2023-01-11T13:51:46.353Z,10.32
2023-01-11T13:54:16.230Z,10.38
2023-01-11T13:56:51.107Z,10.44
2023-01-11T13:59:17.482Z,10.48
2023-01-11T14:01:56.776Z,10.51
2023-01-11T14:05:01.172Z,10.53
2023-01-11T14:07:51.926Z,10.54
2023-01-11T14:10:41.771Z,10.54
2023-01-11T14:13:57.799Z,10.57
2023-01-11T14:16:45.154Z,10.61
2023-01-11T14:19:39.490Z,10.68
2023-01-11T14:22:20.969Z,10.72
2023-01-11T14:25:22.106Z,10.74
2023-01-11T14:28:23.198Z,10.79
2023-01-11T14:31:01.154Z,10.80
2023-01-11T14:34:15.617Z,10.81
2023-01-11T14:37:02.402Z,10.83
2023-01-11T14:39:43.377Z,10.83
2023-01-11T14:42:30.522Z,10.86
2023-01-11T14:45:11.432Z,10.85
2023-01-11T14:47:48.697Z,10.86
2023-01-11T14:50:24.266Z,10.88
2023-01-11T14:52:52.718Z,10.88
2023-01-11T14:55:24.125Z,10.89
2023-01-11T14:57:56.768Z,10.92
2023-01-11T15:00:23.265Z,10.89
2023-01-11T15:03:18.130Z,10.85
2023-01-11T15:05:54.348Z,10.86
2023-01-11T15:08:25.274Z,10.83
2023-01-11T15:10:58.730Z,10.80
2023-01-11T15:13:29.348Z,10.79
2023-01-11T15:16:36.663Z,10.76
2023-01-11T15:19:08.953Z,10.70
2023-01-11T15:21:41.477Z,10.62
2023-01-11T15:24:23.523Z,10.55
2023-01-11T15:26:50.635Z,10.54
2023-01-11T15:29:27.094Z,10.48
2023-01-11T15:31:53.550Z,10.38
2023-01-11T15:34:27.522Z,10.26
2023-01-11T15:36:57.630Z,10.17
2023-01-11T15:39:37.308Z,10.06
2023-01-11T15:42:15.913Z,9.99
2023-01-11T15:45:12.812Z,9.90
2023-01-11T15:47:58.545Z,9.82
2023-01-11T15:51:02.087Z,9.76
2023-01-11T15:53:53.993Z,9.69
2023-01-11T15:56:29.346Z,9.63
2023-01-11T15:59:07.332Z,9.59
2023-01-11T16:02:11.909Z,9.52
2023-01-11T16:04:53.568Z,9.48
2023-01-11T16:08:06.328Z,9.44
2023-01-11T16:11:14.346Z,9.42
2023-01-11T16:13:56.017Z,9.39
2023-01-11T16:16:31.668Z,9.38
2023-01-11T16:19:19.911Z,9.35
2023-01-11T16:21:50.031Z,9.33
2023-01-11T16:24:25.337Z,9.29
2023-01-11T16:26:58.663Z,9.27
2023-01-11T16:29:31.694Z,9.23
2023-01-11T16:32:07.287Z,9.21
2023-01-11T16:34:42.732Z,9.19
2023-01-11T16:37:37.182Z,9.15
2023-01-11T16:40:22.530Z,9.12
2023-01-11T16:42:54.809Z,9.08
2023-01-11T16:45:46.980Z,9.05
2023-01-11T16:48:22.255Z,9.01
2023-01-11T16:51:07.085Z,8.98
2023-01-11T16:53:39.870Z,8.94
2023-01-11T16:56:07.645Z,8.91
2023-01-11T16:58:36.792Z,8.88
2023-01-11T17:01:13.726Z,8.84
2023-01-11T17:03:51.613Z,8.82
2023-01-11T17:06:21.143Z,8.79
2023-01-11T17:08:53.030Z,8.77
2023-01-11T17:11:27.538Z,8.74
2023-01-11T17:14:17.417Z,8.70
2023-01-11T17:16:50.611Z,8.66
2023-01-11T17:19:24.027Z,8.62
2023-01-11T17:21:53.344Z,8.60
2023-01-11T17:24:25.962Z,8.58
2023-01-11T17:26:57.032Z,8.57
2023-01-11T17:29:38.769Z,8.56
2023-01-11T17:32:13.388Z,8.53
2023-01-11T17:34:40.196Z,8.50
2023-01-11T17:37:14.093Z,8.48
2023-01-11T17:39:50.332Z,8.44
2023-01-11T17:42:36.354Z,8.39
2023-01-11T17:45:22.981Z,8.36
2023-01-11T17:47:52.575Z,8.31
2023-01-11T17:50:31.213Z,8.28
2023-01-11T17:53:24.061Z,8.23
2023-01-11T17:55:52.330Z,8.20
2023-01-11T17:58:21.395Z,8.17
2023-01-11T18:01:09.191Z,8.14
2023-01-11T18:03:42.452Z,8.12
2023-01-11T18:06:41.655Z,8.11
2023-01-11T18:09:23.054Z,8.09
2023-01-11T18:11:51.699Z,8.06
2023-01-11T18:14:23.868Z,8.04
2023-01-11T18:17:02.194Z,8.01
2023-01-11T18:19:39.672Z,7.98
2023-01-11T18:22:27.588Z,7.93
2023-01-11T18:24:55.574Z,7.92
2023-01-11T18:27:30.244Z,7.89
2023-01-11T18:29:59.939Z,7.87
2023-01-11T18:32:29.057Z,7.83
2023-01-11T18:34:58.672Z,7.83
2023-01-11T18:37:25.579Z,7.80
2023-01-11T18:39:52.977Z,7.76
2023-01-11T18:42:24.282Z,7.74
2023-01-11T18:44:51.349Z,7.73
2023-01-11T18:47:19.666Z,7.72
2023-01-11T18:49:47.060Z,7.76
2023-01-11T18:52:13.952Z,7.85
2023-01-11T18:54:41.224Z,7.92
2023-01-11T18:57:08.460Z,8.03
2023-01-11T18:59:35.229Z,8.14
2023-01-11T19:02:25.088Z,8.23
2023-01-11T19:04:54.196Z,8.24
2023-01-11T19:07:22.076Z,8.18
2023-01-11T19:09:49.664Z,8.11
2023-01-11T19:12:16.270Z,8.04
2023-01-11T19:14:43.197Z,7.98
2023-01-11T19:17:15.331Z,7.92
2023-01-11T19:19:42.105Z,7.88
2023-01-11T19:22:10.268Z,7.82
2023-01-11T19:24:37.302Z,7.79
2023-01-11T19:27:07.548Z,7.73
2023-01-11T19:29:34.157Z,7.69
2023-01-11T19:32:01.473Z,7.65
2023-01-11T19:34:28.079Z,7.60
2023-01-11T19:36:54.766Z,7.58
2023-01-11T19:39:23.313Z,7.55
2023-01-11T19:41:59.996Z,7.57
2023-01-11T19:44:30.421Z,7.57
2023-01-11T19:47:10.294Z,7.57
2023-01-11T19:49:37.919Z,7.56
2023-01-11T19:52:05.556Z,7.54
2023-01-11T19:54:32.032Z,7.53
2023-01-11T19:56:58.674Z,7.55
2023-01-11T19:59:25.319Z,7.56
2023-01-11T20:01:51.893Z,7.56
2023-01-11T20:04:19.084Z,7.63
2023-01-11T20:06:52.688Z,7.65
2023-01-11T20:09:24.125Z,7.70
2023-01-11T20:11:50.795Z,7.72
2023-01-11T20:14:17.332Z,7.72
2023-01-11T20:16:43.976Z,7.69
2023-01-11T20:19:11.375Z,7.67
2023-01-11T20:21:37.983Z,7.61
2023-01-11T20:24:05.419Z,7.58
2023-01-11T20:26:34.274Z,7.54
2023-01-11T20:29:01.846Z,7.53
2023-01-11T20:31:32.112Z,7.50
2023-01-11T20:34:00.503Z,7.47
2023-01-11T20:36:28.402Z,7.43
2023-01-11T20:38:56.280Z,7.38
2023-01-11T20:41:43.721Z,7.36
2023-01-11T20:44:11.283Z,7.36
2023-01-11T20:46:38.490Z,7.35
2023-01-11T20:49:06.581Z,7.35
2023-01-11T20:51:34.124Z,7.35
2023-01-11T20:54:01.117Z,7.32
2023-01-11T20:56:27.593Z,7.29
2023-01-11T20:58:54.139Z,7.28
2023-01-11T21:01:26.982Z,7.26
2023-01-11T21:03:54.576Z,7.25
2023-01-11T21:06:21.088Z,7.27
2023-01-11T21:08:47.637Z,7.27
2023-01-11T21:11:15.751Z,7.24
2023-01-11T21:13:42.617Z,7.22
2023-01-11T21:16:12.202Z,7.20
2023-01-11T21:18:43.945Z,7.17
2023-01-11T21:21:18.648Z,7.16
2023-01-11T21:23:46.345Z,7.13
2023-01-11T21:26:15.245Z,7.16
2023-01-11T21:28:42.637Z,7.15
2023-01-11T21:31:11.856Z,7.15
2023-01-11T21:33:39.287Z,7.15
2023-01-11T21:36:08.799Z,7.17
2023-01-11T21:38:35.466Z,7.15
2023-01-11T21:41:13.821Z,7.13
2023-01-11T21:43:42.405Z,7.13
2023-01-11T21:46:10.209Z,7.11
2023-01-11T21:48:37.242Z,7.09
2023-01-11T21:51:08.092Z,7.07
2023-01-11T21:53:38.375Z,7.05
2023-01-11T21:56:08.746Z,7.04
2023-01-11T21:58:35.486Z,7.02
2023-01-11T22:01:12.383Z,7.02
2023-01-11T22:03:42.159Z,6.99
2023-01-11T22:06:09.652Z,6.99
2023-01-11T22:08:37.938Z,6.98
2023-01-11T22:11:06.126Z,6.99
2023-01-11T22:13:33.938Z,6.98
2023-01-11T22:16:01.721Z,7.00
2023-01-11T22:18:28.968Z,7.01
2023-01-11T22:20:55.623Z,7.05
2023-01-11T22:23:22.892Z,7.11
2023-01-11T22:25:49.937Z,7.22
2023-01-11T22:28:17.741Z,7.33
2023-01-11T22:30:47.621Z,7.43
2023-01-11T22:33:17.273Z,7.51
2023-01-11T22:35:54.319Z,7.58
2023-01-11T22:38:20.937Z,7.63
2023-01-11T22:40:47.587Z,7.65
2023-01-11T22:43:14.106Z,7.59
2023-01-11T22:45:40.590Z,7.52
2023-01-11T22:48:10.191Z,7.48
2023-01-11T22:50:38.569Z,7.44
2023-01-11T22:53:05.111Z,7.42
2023-01-11T22:55:33.817Z,7.40
2023-01-11T22:58:00.269Z,7.41
2023-01-11T23:00:29.505Z,7.41
2023-01-11T23:02:56.924Z,7.41
2023-01-11T23:05:23.566Z,7.42
2023-01-11T23:07:50.265Z,7.45
2023-01-11T23:10:16.876Z,7.48
2023-01-11T23:13:02.130Z,7.53
2023-01-11T23:15:28.641Z,7.55
2023-01-11T23:17:55.218Z,7.54
2023-01-11T23:20:22.169Z,7.58
2023-01-11T23:22:51.773Z,7.59
2023-01-11T23:25:18.376Z,7.61
2023-01-11T23:27:45.428Z,7.67
2023-01-11T23:30:12.557Z,7.72
2023-01-11T23:32:39.146Z,7.76
2023-01-11T23:35:06.377Z,7.79
2023-01-11T23:37:32.907Z,7.81
2023-01-11T23:39:59.528Z,7.84
2023-01-11T23:42:26.511Z,7.87
2023-01-11T23:44:54.188Z,7.90
2023-01-11T23:47:22.590Z,7.94
2023-01-11T23:49:50.898Z,7.96
2023-01-11T23:52:19.207Z,8.00
2023-01-11T23:54:45.759Z,8.03
2023-01-11T23:57:13.768Z,8.08
2023-01-11T23:59:41.972Z,8.12
